createdAt,value
2023-05-03T00:14:08.773Z,3.70
2023-05-03T00:32:48.012Z,2.80
2023-05-03T00:51:28.420Z,2.80
2023-05-03T01:10:09.657Z,2.20
2023-05-03T01:28:48.851Z,2.20
2023-05-03T01:47:25.815Z,1.60
2023-05-03T02:06:06.092Z,1.90
2023-05-03T02:24:45.310Z,2.00
2023-05-03T02:43:24.761Z,1.70
2023-05-03T03:02:04.980Z,2.60
2023-05-03T03:20:43.482Z,1.90
2023-05-03T03:39:26.600Z,3.00
2023-05-03T03:58:00.325Z,1.70
2023-05-03T04:16:40.766Z,1.30
2023-05-03T04:54:00.548Z,2.40
2023-05-03T05:12:42.063Z,2.30
2023-05-03T05:31:21.587Z,1.90
2023-05-03T06:08:42.207Z,2.90
2023-05-03T06:27:22.904Z,3.20
2023-05-03T06:46:03.790Z,4.80
2023-05-03T07:04:43.678Z,5.20
2023-05-03T07:23:27.401Z,4.80
2023-05-03T07:42:04.314Z,6.10
2023-05-03T08:19:25.997Z,6.00
2023-05-03T08:38:06.921Z,5.80
2023-05-03T08:56:47.839Z,4.80
2023-05-03T09:15:28.863Z,2.80
2023-05-03T09:52:46.477Z,2.60
2023-05-03T10:11:27.146Z,1.70
2023-05-03T10:30:07.205Z,1.50
2023-05-03T10:48:46.785Z,10.30
2023-05-03T11:07:25.440Z,1.00
2023-05-03T11:44:44.554Z,1.30
2023-05-03T12:22:23.317Z,1.20
2023-05-03T12:40:44.158Z,0.80
2023-05-03T13:18:05.957Z,1.70
2023-05-03T13:36:46.071Z,1.40
2023-05-03T14:14:04.995Z,2.40
2023-05-03T14:32:44.364Z,2.90
2023-05-03T14:51:23.428Z,1.90
2023-05-03T15:10:03.506Z,2.50
2023-05-03T15:28:43.485Z,3.30
2023-05-03T16:06:04.320Z,4.10
2023-05-03T16:24:43.185Z,3.80
2023-05-03T16:43:21.632Z,2.80
2023-05-03T17:02:00.918Z,4.00
2023-05-03T17:20:41.322Z,4.00
2023-05-03T17:39:19.994Z,4.70
2023-05-03T17:57:58.309Z,3.90
2023-05-03T18:16:42.448Z,6.90
2023-05-03T18:35:15.493Z,9.40
2023-05-03T18:54:00.275Z,7.70
2023-05-03T19:12:27.846Z,7.40
2023-05-03T19:31:07.642Z,8.60
2023-05-03T19:49:46.454Z,6.50
2023-05-03T20:08:26.538Z,6.70
2023-05-03T20:27:05.569Z,8.60
2023-05-03T20:45:44.360Z,6.60
2023-05-03T21:04:24.512Z,6.10
2023-05-03T21:23:04.355Z,9.50
2023-05-03T22:19:04.878Z,7.00
2023-05-03T22:37:45.307Z,11.40
2023-05-03T22:56:25.215Z,11.20
2023-05-03T23:15:03.930Z,6.90
2023-05-03T23:52:21.075Z,9.80
